createdAt,value
2023-03-30T00:01:15.440Z,99030.81
2023-03-30T00:03:43.410Z,99022.06
2023-03-30T00:06:11.608Z,99034.94
2023-03-30T00:08:38.627Z,99033.34
2023-03-30T00:11:17.284Z,99040.69
2023-03-30T00:13:44.966Z,99032.31
2023-03-30T00:16:14.061Z,99025.09
2023-03-30T00:18:42.547Z,99022.25
2023-03-30T00:21:11.967Z,99009.88
2023-03-30T00:23:39.625Z,99014.94
2023-03-30T00:26:07.792Z,99002.06
2023-03-30T00:28:34.813Z,98995.69
2023-03-30T00:31:03.638Z,99000.22
2023-03-30T00:33:44.721Z,99016.66
2023-03-30T00:36:17.678Z,99024.28
2023-03-30T00:38:45.688Z,99025.63
2023-03-30T00:41:12.719Z,99027.69
2023-03-30T00:44:02.348Z,99017.81
2023-03-30T00:46:32.320Z,99020.03
2023-03-30T00:49:06.465Z,99013.69
2023-03-30T00:51:37.498Z,99014.78
2023-03-30T00:54:10.488Z,99027.44
2023-03-30T00:56:37.605Z,99026.88
2023-03-30T00:59:05.128Z,99029.16
2023-03-30T01:01:38.632Z,99034.75
2023-03-30T01:04:08.687Z,99033.34
2023-03-30T01:06:36.982Z,99039.91
2023-03-30T01:09:05.033Z,99036.53
2023-03-30T01:11:32.812Z,99035.03
2023-03-30T01:14:03.268Z,99040.19
2023-03-30T01:16:37.513Z,99038.38
2023-03-30T01:19:43.835Z,99038.19
2023-03-30T01:22:23.698Z,99039.66
2023-03-30T01:25:09.623Z,99038.19
2023-03-30T01:27:57.988Z,99045.88
2023-03-30T01:30:55.262Z,99043.53
2023-03-30T01:33:28.282Z,99041.63
2023-03-30T01:36:34.208Z,99041.63
2023-03-30T01:39:07.035Z,99039.81
2023-03-30T01:42:09.342Z,99042.06
2023-03-30T01:45:20.327Z,99042.44
2023-03-30T01:47:59.766Z,99040.63
2023-03-30T01:50:35.120Z,99036.66
2023-03-30T01:53:13.362Z,99028.97
2023-03-30T01:55:53.209Z,99034.66
2023-03-30T01:58:27.347Z,99036.66
2023-03-30T02:00:57.704Z,99043.81
2023-03-30T02:03:31.659Z,99037.41
2023-03-30T02:06:09.796Z,99041.28
2023-03-30T02:08:38.302Z,99023.69
2023-03-30T02:11:06.957Z,99028.91
2023-03-30T02:13:36.378Z,99027.88
2023-03-30T02:16:10.738Z,99020.81
2023-03-30T02:18:38.789Z,99029.88
2023-03-30T02:21:05.894Z,99032.88
2023-03-30T02:23:37.201Z,99029.19
2023-03-30T02:26:04.898Z,99030.28
2023-03-30T02:28:32.236Z,99022.47
2023-03-30T02:30:58.943Z,99019.50
2023-03-30T02:33:42.220Z,99019.31
2023-03-30T02:36:19.115Z,99020.13
2023-03-30T02:39:05.207Z,99022.63
2023-03-30T02:42:00.604Z,99011.00
2023-03-30T02:44:56.723Z,98999.81
2023-03-30T02:48:09.819Z,98986.38
2023-03-30T02:50:59.534Z,98997.44
2023-03-30T02:53:32.384Z,99017.44
2023-03-30T02:56:07.799Z,99018.00
2023-03-30T02:58:44.080Z,99012.75
2023-03-30T03:01:25.702Z,98997.81
2023-03-30T03:03:58.205Z,98990.09
2023-03-30T03:06:27.746Z,99000.75
2023-03-30T03:08:55.768Z,99002.34
2023-03-30T03:11:23.239Z,99004.47
2023-03-30T03:13:50.624Z,99002.50
2023-03-30T03:16:17.400Z,99001.56
2023-03-30T03:18:45.738Z,99002.63
2023-03-30T03:21:14.032Z,99007.88
2023-03-30T03:23:42.676Z,99006.88
2023-03-30T03:26:11.640Z,99013.28
2023-03-30T03:28:38.388Z,99010.59
2023-03-30T03:31:06.507Z,98994.53
2023-03-30T03:33:33.858Z,98990.56
2023-03-30T03:36:02.177Z,98997.50
2023-03-30T03:38:29.648Z,98998.47
2023-03-30T03:40:58.195Z,98998.47
2023-03-30T03:43:27.206Z,98996.66
2023-03-30T03:45:53.955Z,99000.88
2023-03-30T03:48:23.906Z,99000.47
2023-03-30T03:50:52.770Z,98999.81
2023-03-30T03:53:20.962Z,98999.72
2023-03-30T03:55:47.617Z,98999.25
2023-03-30T03:58:16.041Z,99003.84
2023-03-30T04:00:42.843Z,99002.81
2023-03-30T04:03:10.261Z,98997.19
2023-03-30T04:05:36.879Z,99008.03
2023-03-30T04:08:05.808Z,99001.75
2023-03-30T04:10:32.478Z,98992.09
2023-03-30T04:13:00.276Z,98989.63
2023-03-30T04:15:28.886Z,98991.91
2023-03-30T04:17:59.374Z,98988.78
2023-03-30T04:20:29.057Z,98989.41
2023-03-30T04:22:57.050Z,99003.28
2023-03-30T04:25:26.889Z,99004.44
2023-03-30T04:27:53.603Z,99005.00
2023-03-30T04:30:23.116Z,98995.97
2023-03-30T04:33:03.245Z,98998.78
2023-03-30T04:35:31.829Z,98992.44
2023-03-30T04:37:58.815Z,99011.41
2023-03-30T04:40:25.524Z,99010.72
2023-03-30T04:42:52.570Z,98996.66
2023-03-30T04:45:19.663Z,99004.16
2023-03-30T04:47:47.554Z,99001.19
2023-03-30T04:50:15.780Z,99003.16
2023-03-30T04:52:42.444Z,99007.22
2023-03-30T04:55:13.021Z,99002.69
2023-03-30T04:57:40.045Z,99001.56
2023-03-30T05:00:09.292Z,98986.59
2023-03-30T05:02:36.628Z,98987.56
2023-03-30T05:05:03.444Z,98995.16
2023-03-30T05:07:31.313Z,98986.50
2023-03-30T05:09:59.438Z,98986.94
2023-03-30T05:12:26.216Z,98994.19
2023-03-30T05:14:52.918Z,98985.38
2023-03-30T05:17:19.512Z,98983.16
2023-03-30T05:19:46.783Z,98989.31
2023-03-30T05:22:14.667Z,98992.34
2023-03-30T05:24:41.397Z,98987.00
2023-03-30T05:27:08.065Z,98985.41
2023-03-30T05:29:34.651Z,98976.84
2023-03-30T05:32:01.563Z,98970.97
2023-03-30T05:34:28.251Z,98965.03
2023-03-30T05:36:56.244Z,98957.81
2023-03-30T05:39:24.579Z,98944.31
2023-03-30T05:41:51.168Z,98949.66
2023-03-30T05:44:21.907Z,98946.59
2023-03-30T05:46:49.178Z,98938.09
2023-03-30T05:49:17.374Z,98944.66
2023-03-30T05:51:44.008Z,98947.22
2023-03-30T05:54:13.871Z,98931.22
2023-03-30T05:56:43.572Z,98925.97
2023-03-30T05:59:11.693Z,98926.94
2023-03-30T06:01:38.624Z,98928.03
2023-03-30T06:04:08.173Z,98922.72
2023-03-30T06:06:34.865Z,98924.09
2023-03-30T06:09:04.003Z,98924.56
2023-03-30T06:11:31.877Z,98902.53
2023-03-30T06:14:00.151Z,98890.81
2023-03-30T06:16:30.180Z,98880.81
2023-03-30T06:18:58.405Z,98879.03
2023-03-30T06:21:25.302Z,98872.00
2023-03-30T06:23:53.321Z,98862.91
2023-03-30T06:26:19.993Z,98859.47
2023-03-30T06:28:46.641Z,98856.00
2023-03-30T06:31:13.360Z,98857.19
2023-03-30T06:33:41.971Z,98855.13
2023-03-30T06:36:13.606Z,98859.34
2023-03-30T06:38:42.595Z,98858.72
2023-03-30T06:41:11.929Z,98859.06
2023-03-30T06:43:39.517Z,98863.13
2023-03-30T06:46:08.540Z,98865.16
2023-03-30T06:48:35.764Z,98865.09
2023-03-30T06:51:03.981Z,98868.31
2023-03-30T06:53:30.793Z,98872.06
2023-03-30T06:55:59.120Z,98878.53
2023-03-30T06:58:28.969Z,98879.53
2023-03-30T07:00:55.830Z,98874.56
2023-03-30T07:03:22.640Z,98875.50
2023-03-30T07:05:50.793Z,98869.91
2023-03-30T07:08:21.472Z,98866.81
2023-03-30T07:10:48.647Z,98870.34
2023-03-30T07:13:18.051Z,98865.13
2023-03-30T07:15:46.099Z,98861.06
2023-03-30T07:18:13.643Z,98869.16
2023-03-30T07:20:40.484Z,98876.34
2023-03-30T07:23:07.811Z,98871.72
2023-03-30T07:25:34.470Z,98878.88
2023-03-30T07:28:02.199Z,98872.00
2023-03-30T07:30:29.096Z,98874.91
2023-03-30T07:32:58.328Z,98876.00
2023-03-30T07:35:25.591Z,98872.00
2023-03-30T07:38:01.979Z,98879.06
2023-03-30T07:40:42.436Z,98878.84
2023-03-30T07:43:10.452Z,98879.56
2023-03-30T07:45:37.030Z,98883.97
2023-03-30T07:48:03.892Z,98879.94
2023-03-30T07:50:30.900Z,98876.84
2023-03-30T07:52:57.552Z,98880.78
2023-03-30T07:55:24.472Z,98876.53
2023-03-30T07:57:51.486Z,98874.69
2023-03-30T08:00:19.243Z,98879.06
2023-03-30T08:02:45.887Z,98882.66
2023-03-30T08:05:13.850Z,98886.56
2023-03-30T08:07:40.677Z,98887.63
2023-03-30T08:10:09.734Z,98888.06
2023-03-30T08:12:36.550Z,98882.53
2023-03-30T08:15:04.121Z,98890.47
2023-03-30T08:17:32.439Z,98892.44
2023-03-30T08:20:00.609Z,98898.69
2023-03-30T08:22:27.221Z,98899.44
2023-03-30T08:24:55.219Z,98894.09
2023-03-30T08:27:21.828Z,98892.69
2023-03-30T08:29:50.726Z,98895.31
2023-03-30T08:32:17.652Z,98896.50
2023-03-30T08:34:44.766Z,98897.53
2023-03-30T08:37:12.357Z,98901.72
2023-03-30T08:39:39.632Z,98905.88
2023-03-30T08:42:28.940Z,98903.53
2023-03-30T08:45:03.329Z,98902.50
2023-03-30T08:47:33.892Z,98898.94
2023-03-30T08:50:26.698Z,98904.56
2023-03-30T08:52:53.338Z,98914.63
2023-03-30T08:55:24.329Z,98910.31
2023-03-30T08:57:54.116Z,98902.59
2023-03-30T09:00:34.109Z,98907.09
2023-03-30T09:03:27.235Z,98913.06
2023-03-30T09:06:00.155Z,98908.97
2023-03-30T09:08:29.710Z,98914.31
2023-03-30T09:11:01.742Z,98917.19
2023-03-30T09:13:33.874Z,98913.84
2023-03-30T09:16:22.743Z,98918.50
2023-03-30T09:18:54.823Z,98918.59
2023-03-30T09:21:25.185Z,98910.44
2023-03-30T09:23:53.800Z,98915.56
2023-03-30T09:26:46.047Z,98915.91
2023-03-30T09:29:22.217Z,98899.69
2023-03-30T09:31:54.858Z,98895.00
2023-03-30T09:34:41.661Z,98893.94
2023-03-30T09:37:22.837Z,98884.31
2023-03-30T09:39:50.383Z,98890.19
2023-03-30T09:42:35.814Z,98891.88
2023-03-30T09:45:16.219Z,98885.50
2023-03-30T09:47:44.351Z,98888.25
2023-03-30T09:50:17.191Z,98876.53
2023-03-30T09:52:57.459Z,98868.47
2023-03-30T09:55:32.578Z,98854.59
2023-03-30T09:58:20.492Z,98846.03
2023-03-30T10:01:14.128Z,98855.69
2023-03-30T10:03:42.640Z,98852.53
2023-03-30T10:06:17.540Z,98838.34
2023-03-30T10:08:51.374Z,98835.16
2023-03-30T10:11:30.408Z,98839.16
2023-03-30T10:13:58.330Z,98841.31
2023-03-30T10:16:28.725Z,98832.22
2023-03-30T10:19:00.825Z,98833.28
2023-03-30T10:21:39.168Z,98832.78
2023-03-30T10:24:11.434Z,98828.78
2023-03-30T10:26:39.764Z,98818.88
2023-03-30T10:29:18.005Z,98827.53
2023-03-30T10:31:48.425Z,98816.25
2023-03-30T10:34:37.004Z,98819.47
2023-03-30T10:37:10.992Z,98821.88
2023-03-30T10:39:41.068Z,98818.16
2023-03-30T10:42:12.609Z,98813.63
2023-03-30T10:44:49.815Z,98815.75
2023-03-30T10:47:36.026Z,98813.09
2023-03-30T10:50:37.362Z,98804.53
2023-03-30T10:53:22.120Z,98814.44
2023-03-30T10:56:20.200Z,98805.03
2023-03-30T10:59:02.203Z,98799.97
2023-03-30T11:01:50.687Z,98798.63
2023-03-30T11:04:34.054Z,98801.84
2023-03-30T11:07:02.768Z,98789.81
2023-03-30T11:09:36.691Z,98789.00
2023-03-30T11:12:16.717Z,98784.44
2023-03-30T11:14:49.244Z,98780.41
2023-03-30T11:17:44.807Z,98780.69
2023-03-30T11:20:20.875Z,98780.97
2023-03-30T11:23:02.137Z,98770.25
2023-03-30T11:25:46.006Z,98767.84
2023-03-30T11:28:32.642Z,98769.69
2023-03-30T11:31:09.012Z,98756.31
2023-03-30T11:33:53.821Z,98756.84
2023-03-30T11:36:33.728Z,98750.97
2023-03-30T11:39:29.097Z,98750.97
2023-03-30T11:42:09.183Z,98741.84
2023-03-30T11:44:36.577Z,98737.00
2023-03-30T11:47:29.790Z,98726.31
2023-03-30T11:50:14.615Z,98732.19
2023-03-30T11:52:53.475Z,98719.88
2023-03-30T11:55:50.551Z,98720.94
2023-03-30T11:58:35.540Z,98712.59
2023-03-30T12:01:11.483Z,98717.69
2023-03-30T12:03:56.735Z,98719.03
2023-03-30T12:06:31.223Z,98711.25
2023-03-30T12:09:04.811Z,98712.84
2023-03-30T12:11:38.585Z,98714.47
2023-03-30T12:14:41.297Z,98710.81
2023-03-30T12:17:33.447Z,98717.25
2023-03-30T12:20:18.690Z,98710.22
2023-03-30T12:22:52.979Z,98708.03
2023-03-30T12:25:52.050Z,98706.97
2023-03-30T12:28:29.905Z,98704.28
2023-03-30T12:31:11.364Z,98705.34
2023-03-30T12:33:48.555Z,98688.94
2023-03-30T12:36:26.236Z,98687.50
2023-03-30T12:38:57.676Z,98688.06
2023-03-30T12:41:27.117Z,98692.94
2023-03-30T12:44:09.083Z,98688.75
2023-03-30T12:46:44.740Z,98683.38
2023-03-30T12:49:41.165Z,98683.59
2023-03-30T12:52:33.822Z,98688.19
2023-03-30T12:55:22.536Z,98681.97
2023-03-30T12:58:10.153Z,98676.63
2023-03-30T13:01:04.793Z,98668.38
2023-03-30T13:03:40.952Z,98668.84
2023-03-30T13:06:30.487Z,98659.59
2023-03-30T13:09:15.637Z,98665.16
2023-03-30T13:12:08.249Z,98651.22
2023-03-30T13:14:40.432Z,98649.69
2023-03-30T13:17:19.057Z,98647.94
2023-03-30T13:20:15.546Z,98639.41
2023-03-30T13:23:11.705Z,98634.81
2023-03-30T13:25:59.049Z,98638.25
2023-03-30T13:28:32.507Z,98638.81
2023-03-30T13:31:09.403Z,98629.56
2023-03-30T13:33:42.428Z,98632.28
2023-03-30T13:36:24.212Z,98617.78
2023-03-30T13:39:27.828Z,98619.63
2023-03-30T13:42:20.729Z,98610.28
2023-03-30T13:44:57.340Z,98610.06
2023-03-30T13:47:42.467Z,98600.56
2023-03-30T13:50:31.885Z,98595.56
2023-03-30T13:53:02.931Z,98585.16
2023-03-30T13:55:44.865Z,98584.50
2023-03-30T13:58:17.992Z,98577.06
2023-03-30T14:00:55.948Z,98582.50
2023-03-30T14:03:30.714Z,98578.06
2023-03-30T14:06:08.739Z,98570.72
2023-03-30T14:08:38.886Z,98565.94
2023-03-30T14:11:18.501Z,98557.75
2023-03-30T14:13:49.311Z,98561.38
2023-03-30T14:16:25.881Z,98560.44
2023-03-30T14:18:54.388Z,98566.41
2023-03-30T14:21:24.100Z,98555.41
2023-03-30T14:23:55.046Z,98554.53
2023-03-30T14:26:27.869Z,98546.16
2023-03-30T14:29:06.270Z,98556.19
2023-03-30T14:31:41.865Z,98553.59
2023-03-30T14:34:28.417Z,98541.13
2023-03-30T14:36:58.773Z,98541.09
2023-03-30T14:39:25.608Z,98543.25
2023-03-30T14:41:53.040Z,98540.75
2023-03-30T14:44:24.239Z,98528.28
2023-03-30T14:46:55.561Z,98524.25
2023-03-30T14:49:28.531Z,98525.75
2023-03-30T14:52:21.559Z,98519.44
2023-03-30T14:55:02.519Z,98516.38
2023-03-30T14:57:43.749Z,98518.78
2023-03-30T15:00:21.080Z,98517.22
2023-03-30T15:02:57.050Z,98516.28
2023-03-30T15:05:28.580Z,98514.53
2023-03-30T15:07:55.878Z,98517.16
2023-03-30T15:10:37.212Z,98511.03
2023-03-30T15:13:09.011Z,98504.28
2023-03-30T15:15:36.062Z,98509.91
2023-03-30T15:18:05.446Z,98508.75
2023-03-30T15:20:32.252Z,98503.41
2023-03-30T15:23:00.487Z,98500.53
2023-03-30T15:25:36.459Z,98498.06
2023-03-30T15:28:11.727Z,98507.28
2023-03-30T15:30:42.506Z,98502.63
2023-03-30T15:33:35.872Z,98502.19
2023-03-30T15:36:12.702Z,98498.63
2023-03-30T15:38:58.771Z,98494.13
2023-03-30T15:41:48.846Z,98497.28
2023-03-30T15:44:20.363Z,98500.50
2023-03-30T15:46:49.765Z,98502.63
2023-03-30T15:49:19.683Z,98496.22
2023-03-30T15:51:48.493Z,98500.81
2023-03-30T15:54:19.586Z,98508.97
2023-03-30T15:56:49.223Z,98502.91
2023-03-30T15:59:19.794Z,98512.84
2023-03-30T16:01:55.991Z,98504.47
2023-03-30T16:04:24.859Z,98500.66
2023-03-30T16:06:53.922Z,98502.34
2023-03-30T16:09:22.414Z,98507.47
2023-03-30T16:11:49.978Z,98506.59
2023-03-30T16:14:22.362Z,98500.19
2023-03-30T16:16:49.158Z,98499.47
2023-03-30T16:19:19.193Z,98511.56
2023-03-30T16:21:46.263Z,98503.28
2023-03-30T16:24:13.155Z,98503.03
2023-03-30T16:26:39.819Z,98496.06
2023-03-30T16:29:19.552Z,98500.88
2023-03-30T16:31:46.267Z,98506.31
2023-03-30T16:34:12.928Z,98497.31
2023-03-30T16:36:39.540Z,98500.22
2023-03-30T16:39:17.897Z,98500.91
2023-03-30T16:41:44.877Z,98504.66
2023-03-30T16:44:12.525Z,98496.25
2023-03-30T16:46:40.731Z,98508.00
2023-03-30T16:49:18.031Z,98488.84
2023-03-30T16:51:44.937Z,98497.50
2023-03-30T16:54:27.284Z,98499.50
2023-03-30T16:57:02.272Z,98500.78
2023-03-30T16:59:31.218Z,98503.47
2023-03-30T17:01:59.015Z,98500.22
2023-03-30T17:04:26.520Z,98502.53
2023-03-30T17:06:55.800Z,98515.44
2023-03-30T17:09:23.379Z,98511.88
2023-03-30T17:11:50.406Z,98505.34
2023-03-30T17:14:18.893Z,98517.72
2023-03-30T17:16:46.760Z,98518.19
2023-03-30T17:19:14.597Z,98521.72
2023-03-30T17:21:43.551Z,98524.72
2023-03-30T17:24:11.262Z,98517.19
2023-03-30T17:26:38.550Z,98522.31
2023-03-30T17:29:06.470Z,98531.69
2023-03-30T17:31:33.255Z,98522.03
2023-03-30T17:33:59.945Z,98529.56
2023-03-30T17:36:28.655Z,98530.38
2023-03-30T17:38:55.396Z,98523.16
2023-03-30T17:41:23.323Z,98529.56
2023-03-30T17:43:49.951Z,98527.94
2023-03-30T17:46:18.786Z,98523.16
2023-03-30T17:48:46.179Z,98531.09
2023-03-30T17:51:12.821Z,98534.56
2023-03-30T17:53:39.487Z,98522.03
2023-03-30T17:56:07.926Z,98516.66
2023-03-30T17:58:36.805Z,98528.63
2023-03-30T18:01:06.401Z,98524.09
2023-03-30T18:03:33.872Z,98523.72
2023-03-30T18:06:02.119Z,98523.72
2023-03-30T18:08:30.817Z,98528.84
2023-03-30T18:10:59.026Z,98525.75
2023-03-30T18:13:27.728Z,98523.66
2023-03-30T18:15:56.275Z,98521.53
2023-03-30T18:18:25.276Z,98523.81
2023-03-30T18:20:59.023Z,98514.22
2023-03-30T18:23:25.942Z,98514.25
2023-03-30T18:25:53.816Z,98521.38
2023-03-30T18:28:28.021Z,98528.81
2023-03-30T18:30:57.420Z,98532.31
2023-03-30T18:33:24.915Z,98529.44
2023-03-30T18:35:53.224Z,98532.69
2023-03-30T18:38:21.723Z,98528.97
2023-03-30T18:40:50.647Z,98520.03
2023-03-30T18:43:17.641Z,98528.66
2023-03-30T18:45:46.847Z,98521.00
2023-03-30T18:48:16.650Z,98522.22
2023-03-30T18:50:49.605Z,98528.56
2023-03-30T18:53:24.512Z,98531.06
2023-03-30T18:55:53.688Z,98531.06
2023-03-30T18:58:26.407Z,98534.25
2023-03-30T19:00:54.374Z,98532.81
2023-03-30T19:03:22.354Z,98531.06
2023-03-30T19:05:50.300Z,98529.38
2023-03-30T19:08:22.188Z,98533.09
2023-03-30T19:10:51.547Z,98534.38
2023-03-30T19:13:20.373Z,98539.34
2023-03-30T19:15:48.503Z,98536.84
2023-03-30T19:18:18.956Z,98542.88
2023-03-30T19:20:46.105Z,98541.91
2023-03-30T19:23:14.903Z,98542.78
2023-03-30T19:25:43.372Z,98541.19
2023-03-30T19:28:11.065Z,98538.50
2023-03-30T19:30:39.920Z,98534.75
2023-03-30T19:33:09.797Z,98535.00
2023-03-30T19:35:36.527Z,98527.28
2023-03-30T19:38:03.474Z,98527.88
2023-03-30T19:40:30.156Z,98538.44
2023-03-30T19:42:56.947Z,98537.38
2023-03-30T19:45:24.079Z,98529.00
2023-03-30T19:47:51.518Z,98515.88
2023-03-30T19:50:21.476Z,98511.75
2023-03-30T19:52:50.158Z,98508.50
2023-03-30T19:55:19.152Z,98513.41
2023-03-30T19:57:46.533Z,98513.28
2023-03-30T20:00:16.164Z,98516.66
2023-03-30T20:02:47.862Z,98511.50
2023-03-30T20:05:15.858Z,98511.66
2023-03-30T20:07:44.278Z,98503.31
2023-03-30T20:10:13.841Z,98508.13
2023-03-30T20:12:40.622Z,98503.09
2023-03-30T20:15:08.303Z,98505.84
2023-03-30T20:17:36.405Z,98504.16
2023-03-30T20:20:09.167Z,98500.59
2023-03-30T20:22:37.453Z,98494.00
2023-03-30T20:25:08.440Z,98498.38
2023-03-30T20:27:36.212Z,98506.28
2023-03-30T20:30:04.913Z,98502.38
2023-03-30T20:32:31.779Z,98499.25
2023-03-30T20:34:58.703Z,98499.69
2023-03-30T20:37:25.359Z,98492.13
2023-03-30T20:39:52.039Z,98493.41
2023-03-30T20:42:26.162Z,98501.16
2023-03-30T20:44:53.499Z,98495.97
2023-03-30T20:47:23.530Z,98489.16
2023-03-30T20:49:50.343Z,98491.09
2023-03-30T20:52:17.104Z,98487.53
2023-03-30T20:54:44.762Z,98493.34
2023-03-30T20:57:12.770Z,98489.41
2023-03-30T20:59:41.098Z,98488.50
2023-03-30T21:02:07.807Z,98495.06
2023-03-30T21:04:34.515Z,98484.72
2023-03-30T21:07:01.495Z,98491.94
2023-03-30T21:09:28.750Z,98494.94
2023-03-30T21:11:55.563Z,98498.75
2023-03-30T21:14:24.095Z,98484.47
2023-03-30T21:16:51.047Z,98480.81
2023-03-30T21:19:17.687Z,98481.72
2023-03-30T21:21:44.721Z,98474.03
2023-03-30T21:24:12.946Z,98474.03
2023-03-30T21:26:40.501Z,98465.28
2023-03-30T21:29:07.133Z,98466.91
2023-03-30T21:31:33.885Z,98468.28
2023-03-30T21:34:00.904Z,98466.66
2023-03-30T21:36:27.670Z,98467.78
2023-03-30T21:38:56.216Z,98463.50
2023-03-30T21:41:24.384Z,98463.25
2023-03-30T21:43:51.153Z,98448.28
2023-03-30T21:46:22.191Z,98449.34
2023-03-30T21:48:53.300Z,98443.94
2023-03-30T21:51:27.677Z,98452.38
2023-03-30T21:53:55.960Z,98454.25
2023-03-30T21:56:24.343Z,98452.53
2023-03-30T21:58:52.217Z,98455.63
2023-03-30T22:01:21.512Z,98463.03
2023-03-30T22:03:48.373Z,98450.25
2023-03-30T22:06:17.271Z,98446.78
2023-03-30T22:08:45.551Z,98443.28
2023-03-30T22:11:14.282Z,98442.84
2023-03-30T22:13:41.097Z,98447.22
2023-03-30T22:16:29.021Z,98463.31
2023-03-30T22:18:55.974Z,98452.19
2023-03-30T22:21:24.939Z,98440.00
2023-03-30T22:23:54.693Z,98443.97
2023-03-30T22:26:22.315Z,98439.63
2023-03-30T22:28:49.087Z,98429.97
2023-03-30T22:31:16.786Z,98438.97
2023-03-30T22:33:43.932Z,98436.38
2023-03-30T22:36:16.698Z,98438.19
2023-03-30T22:38:44.411Z,98442.06
2023-03-30T22:41:12.836Z,98442.13
2023-03-30T22:43:39.507Z,98440.50
2023-03-30T22:46:06.809Z,98433.91
2023-03-30T22:48:34.156Z,98430.44
2023-03-30T22:51:08.163Z,98428.44
2023-03-30T22:53:35.373Z,98433.59
2023-03-30T22:56:02.069Z,98429.78
2023-03-30T22:58:28.763Z,98419.09
2023-03-30T23:01:12.166Z,98401.38
2023-03-30T23:03:40.245Z,98416.34
2023-03-30T23:06:07.814Z,98416.28
2023-03-30T23:08:34.979Z,98417.75
2023-03-30T23:11:05.017Z,98400.47
2023-03-30T23:13:33.595Z,98397.13
2023-03-30T23:16:00.219Z,98397.84
2023-03-30T23:18:28.690Z,98395.06
2023-03-30T23:20:59.032Z,98397.28
2023-03-30T23:23:25.742Z,98387.69
2023-03-30T23:25:52.670Z,98380.22
2023-03-30T23:28:19.557Z,98378.03
2023-03-30T23:30:46.446Z,98378.28
2023-03-30T23:33:13.551Z,98388.56
2023-03-30T23:35:44.287Z,98375.63
2023-03-30T23:38:11.572Z,98383.97
2023-03-30T23:40:38.160Z,98376.78
2023-03-30T23:43:04.766Z,98377.22
2023-03-30T23:45:31.685Z,98370.28
2023-03-30T23:47:59.339Z,98369.38
2023-03-30T23:50:28.957Z,98366.97
2023-03-30T23:52:56.905Z,98366.13
2023-03-30T23:55:24.548Z,98376.03
2023-03-30T23:57:51.249Z,98377.75
